sensor_id;sensor_type;location;lat;lon;timestamp;P1;durP1;ratioP1;P2;durP2;ratioP2
12798;SDS011;19250;42.646;26.980;2022-09-13T12:49:06;2.58;;;1.80;;
12798;SDS011;19250;42.646;26.980;2022-09-13T12:52:03;3.53;;;1.70;;
12798;SDS011;19250;42.646;26.980;2022-09-13T12:54:45;2.50;;;2.17;;
12798;SDS011;19250;42.646;26.980;2022-09-13T12:57:29;2.95;;;2.20;;
12798;SDS011;19250;42.646;26.980;2022-09-13T13:00:09;2.00;;;1.90;;
12798;SDS011;19250;42.646;26.980;2022-09-13T13:02:42;2.50;;;2.05;;
12798;SDS011;19250;42.646;26.980;2022-09-13T13:05:19;2.83;;;2.20;;
12798;SDS011;19250;42.646;26.980;2022-09-13T13:07:52;2.85;;;2.05;;
12798;SDS011;19250;42.646;26.980;2022-09-13T13:10:23;2.20;;;1.98;;
12798;SDS011;19250;42.646;26.980;2022-09-13T13:12:54;3.13;;;2.20;;
12798;SDS011;19250;42.646;26.980;2022-09-13T13:18:26;5.68;;;2.33;;
12798;SDS011;19250;42.646;26.980;2022-09-13T13:21:04;3.40;;;2.40;;
12798;SDS011;19250;42.646;26.980;2022-09-13T13:27:40;2.53;;;2.33;;
12798;SDS011;19250;42.646;26.980;2022-09-13T13:33:15;3.25;;;2.25;;
12798;SDS011;19250;42.646;26.980;2022-09-13T13:35:45;1.95;;;1.80;;
12798;SDS011;19250;42.646;26.980;2022-09-13T13:38:31;3.60;;;2.13;;
12798;SDS011;19250;42.646;26.980;2022-09-13T13:41:07;2.60;;;2.00;;
12798;SDS011;19250;42.646;26.980;2022-09-13T13:50:26;3.78;;;2.00;;
12798;SDS011;19250;42.646;26.980;2022-09-13T13:52:54;1.95;;;1.80;;
12798;SDS011;19250;42.646;26.980;2022-09-13T13:55:41;5.57;;;1.90;;
12798;SDS011;19250;42.646;26.980;2022-09-13T14:01:13;2.40;;;2.17;;
12798;SDS011;19250;42.646;26.980;2022-09-13T14:03:50;3.67;;;3.17;;
12798;SDS011;19250;42.646;26.980;2022-09-13T14:06:27;2.08;;;1.85;;
12798;SDS011;19250;42.646;26.980;2022-09-13T14:09:05;2.60;;;1.80;;
12798;SDS011;19250;42.646;26.980;2022-09-13T14:11:54;5.13;;;4.72;;
12798;SDS011;19250;42.646;26.980;2022-09-13T14:14:37;3.92;;;3.20;;
12798;SDS011;19250;42.646;26.980;2022-09-13T14:17:24;3.22;;;1.90;;
12798;SDS011;19250;42.646;26.980;2022-09-13T14:20:03;2.60;;;2.40;;
12798;SDS011;19250;42.646;26.980;2022-09-13T14:22:35;2.90;;;2.30;;
12798;SDS011;19250;42.646;26.980;2022-09-13T14:25:13;2.90;;;2.50;;
12798;SDS011;19250;42.646;26.980;2022-09-13T14:27:49;4.37;;;2.30;;
12798;SDS011;19250;42.646;26.980;2022-09-13T14:30:22;3.72;;;2.20;;
12798;SDS011;19250;42.646;26.980;2022-09-13T14:32:54;5.18;;;1.85;;
12798;SDS011;19250;42.646;26.980;2022-09-13T14:35:24;2.80;;;1.90;;
12798;SDS011;19250;42.646;26.980;2022-09-13T14:37:53;2.08;;;1.90;;
12798;SDS011;19250;42.646;26.980;2022-09-13T14:40:22;1.80;;;1.70;;
12798;SDS011;19250;42.646;26.980;2022-09-13T14:42:54;2.83;;;2.35;;
12798;SDS011;19250;42.646;26.980;2022-09-13T14:45:22;4.47;;;2.10;;
12798;SDS011;19250;42.646;26.980;2022-09-13T14:47:56;3.65;;;1.92;;
12798;SDS011;19250;42.646;26.980;2022-09-13T14:50:33;1.70;;;1.60;;
12798;SDS011;19250;42.646;26.980;2022-09-13T14:53:06;1.70;;;1.60;;
12798;SDS011;19250;42.646;26.980;2022-09-13T14:55:41;1.98;;;1.52;;
12798;SDS011;19250;42.646;26.980;2022-09-13T14:58:14;2.53;;;1.83;;
12798;SDS011;19250;42.646;26.980;2022-09-13T15:00:47;2.03;;;1.83;;
12798;SDS011;19250;42.646;26.980;2022-09-13T15:03:17;2.22;;;2.10;;
12798;SDS011;19250;42.646;26.980;2022-09-13T15:05:49;1.88;;;1.77;;
12798;SDS011;19250;42.646;26.980;2022-09-13T15:08:25;1.77;;;1.67;;
12798;SDS011;19250;42.646;26.980;2022-09-13T15:10:55;3.58;;;2.00;;
12798;SDS011;19250;42.646;26.980;2022-09-13T15:13:24;3.08;;;1.90;;
12798;SDS011;19250;42.646;26.980;2022-09-13T15:15:52;2.80;;;2.00;;
12798;SDS011;19250;42.646;26.980;2022-09-13T15:18:23;1.90;;;1.80;;
12798;SDS011;19250;42.646;26.980;2022-09-13T15:20:52;2.75;;;1.90;;
12798;SDS011;19250;42.646;26.980;2022-09-13T15:23:22;2.63;;;2.00;;
12798;SDS011;19250;42.646;26.980;2022-09-13T15:25:52;2.20;;;1.67;;
12798;SDS011;19250;42.646;26.980;2022-09-13T15:28:22;2.47;;;1.92;;
12798;SDS011;19250;42.646;26.980;2022-09-13T15:30:53;4.13;;;2.92;;
12798;SDS011;19250;42.646;26.980;2022-09-13T15:33:24;3.85;;;1.90;;
12798;SDS011;19250;42.646;26.980;2022-09-13T15:38:57;2.83;;;2.30;;
12798;SDS011;19250;42.646;26.980;2022-09-13T15:41:29;3.83;;;2.40;;
12798;SDS011;19250;42.646;26.980;2022-09-13T15:44:01;2.67;;;2.22;;
12798;SDS011;19250;42.646;26.980;2022-09-13T15:46:30;2.97;;;1.90;;
12798;SDS011;19250;42.646;26.980;2022-09-13T15:48:58;1.95;;;1.75;;
12798;SDS011;19250;42.646;26.980;2022-09-13T15:51:30;4.20;;;2.50;;
12798;SDS011;19250;42.646;26.980;2022-09-13T15:53:57;3.13;;;2.60;;
12798;SDS011;19250;42.646;26.980;2022-09-13T15:56:25;3.88;;;2.30;;
12798;SDS011;19250;42.646;26.980;2022-09-13T15:58:57;4.63;;;3.17;;
12798;SDS011;19250;42.646;26.980;2022-09-13T16:01:26;1.98;;;1.77;;
12798;SDS011;19250;42.646;26.980;2022-09-13T16:03:54;3.88;;;2.22;;
12798;SDS011;19250;42.646;26.980;2022-09-13T16:06:21;5.00;;;2.30;;
12798;SDS011;19250;42.646;26.980;2022-09-13T16:08:48;3.63;;;2.90;;
12798;SDS011;19250;42.646;26.980;2022-09-13T16:11:16;4.13;;;3.30;;
12798;SDS011;19250;42.646;26.980;2022-09-13T16:13:43;7.03;;;3.40;;
12798;SDS011;19250;42.646;26.980;2022-09-13T16:16:11;3.90;;;2.63;;
12798;SDS011;19250;42.646;26.980;2022-09-13T16:18:43;4.57;;;2.80;;
12798;SDS011;19250;42.646;26.980;2022-09-13T16:21:11;5.22;;;2.80;;
12798;SDS011;19250;42.646;26.980;2022-09-13T16:23:38;6.20;;;2.70;;
12798;SDS011;19250;42.646;26.980;2022-09-13T16:26:06;3.03;;;2.50;;
12798;SDS011;19250;42.646;26.980;2022-09-13T16:28:33;3.70;;;2.47;;
12798;SDS011;19250;42.646;26.980;2022-09-13T16:31:01;5.13;;;3.17;;
12798;SDS011;19250;42.646;26.980;2022-09-13T16:33:29;5.57;;;2.85;;
12798;SDS011;19250;42.646;26.980;2022-09-13T16:35:58;14.18;;;3.25;;
12798;SDS011;19250;42.646;26.980;2022-09-13T16:38:25;4.90;;;2.92;;
12798;SDS011;19250;42.646;26.980;2022-09-13T16:40:53;6.90;;;3.17;;
12798;SDS011;19250;42.646;26.980;2022-09-13T16:43:20;5.50;;;3.00;;
12798;SDS011;19250;42.646;26.980;2022-09-13T16:45:47;5.25;;;2.83;;
12798;SDS011;19250;42.646;26.980;2022-09-13T16:48:15;4.20;;;2.83;;
12798;SDS011;19250;42.646;26.980;2022-09-13T16:50:43;5.13;;;3.00;;
12798;SDS011;19250;42.646;26.980;2022-09-13T16:53:11;6.78;;;3.05;;
12798;SDS011;19250;42.646;26.980;2022-09-13T16:55:39;6.03;;;3.03;;
12798;SDS011;19250;42.646;26.980;2022-09-13T16:58:07;4.60;;;3.10;;
12798;SDS011;19250;42.646;26.980;2022-09-13T17:00:34;5.10;;;2.90;;
12798;SDS011;19250;42.646;26.980;2022-09-13T17:03:01;4.00;;;2.47;;
12798;SDS011;19250;42.646;26.980;2022-09-13T17:05:29;9.20;;;3.05;;
12798;SDS011;19250;42.646;26.980;2022-09-13T17:07:56;4.53;;;2.40;;
12798;SDS011;19250;42.646;26.980;2022-09-13T17:10:25;4.75;;;2.60;;
12798;SDS011;19250;42.646;26.980;2022-09-13T17:12:53;2.97;;;2.35;;
12798;SDS011;19250;42.646;26.980;2022-09-13T17:15:20;4.90;;;3.20;;
12798;SDS011;19250;42.646;26.980;2022-09-13T17:17:47;3.70;;;2.53;;
12798;SDS011;19250;42.646;26.980;2022-09-13T17:20:15;6.10;;;2.47;;
12798;SDS011;19250;42.646;26.980;2022-09-13T17:22:43;3.08;;;2.22;;
12798;SDS011;19250;42.646;26.980;2022-09-13T17:25:11;6.23;;;2.23;;
12798;SDS011;19250;42.646;26.980;2022-09-13T17:27:41;4.13;;;2.85;;
12798;SDS011;19250;42.646;26.980;2022-09-13T17:30:09;2.90;;;2.63;;
12798;SDS011;19250;42.646;26.980;2022-09-13T17:32:39;4.03;;;2.27;;
12798;SDS011;19250;42.646;26.980;2022-09-13T17:35:07;4.55;;;2.03;;
12798;SDS011;19250;42.646;26.980;2022-09-13T17:37:36;3.53;;;2.30;;
12798;SDS011;19250;42.646;26.980;2022-09-13T17:40:04;5.00;;;2.20;;
12798;SDS011;19250;42.646;26.980;2022-09-13T17:42:32;3.22;;;2.80;;
12798;SDS011;19250;42.646;26.980;2022-09-13T17:45:01;4.90;;;2.80;;
12798;SDS011;19250;42.646;26.980;2022-09-13T17:47:28;2.73;;;2.20;;
12798;SDS011;19250;42.646;26.980;2022-09-13T17:49:55;3.90;;;2.42;;
12798;SDS011;19250;42.646;26.980;2022-09-13T17:52:22;4.15;;;2.60;;
12798;SDS011;19250;42.646;26.980;2022-09-13T17:54:50;4.78;;;2.10;;
12798;SDS011;19250;42.646;26.980;2022-09-13T17:57:18;2.70;;;2.08;;
12798;SDS011;19250;42.646;26.980;2022-09-13T17:59:46;2.80;;;2.50;;
12798;SDS011;19250;42.646;26.980;2022-09-13T18:02:15;2.85;;;2.60;;
12798;SDS011;19250;42.646;26.980;2022-09-13T18:04:42;2.53;;;2.20;;
12798;SDS011;19250;42.646;26.980;2022-09-13T18:07:10;2.25;;;1.90;;
12798;SDS011;19250;42.646;26.980;2022-09-13T18:09:37;1.93;;;1.80;;
12798;SDS011;19250;42.646;26.980;2022-09-13T18:12:05;2.00;;;1.80;;
12798;SDS011;19250;42.646;26.980;2022-09-13T18:14:33;3.38;;;1.98;;
12798;SDS011;19250;42.646;26.980;2022-09-13T18:17:00;4.65;;;2.10;;
12798;SDS011;19250;42.646;26.980;2022-09-13T18:19:31;2.63;;;2.10;;
12798;SDS011;19250;42.646;26.980;2022-09-13T18:22:00;2.93;;;2.00;;
12798;SDS011;19250;42.646;26.980;2022-09-13T18:24:27;2.83;;;2.10;;
12798;SDS011;19250;42.646;26.980;2022-09-13T18:26:55;2.17;;;1.98;;
12798;SDS011;19250;42.646;26.980;2022-09-13T18:29:22;3.90;;;2.20;;
12798;SDS011;19250;42.646;26.980;2022-09-13T18:31:50;4.32;;;2.00;;
12798;SDS011;19250;42.646;26.980;2022-09-13T18:34:17;3.40;;;2.10;;
12798;SDS011;19250;42.646;26.980;2022-09-13T18:36:46;5.87;;;2.47;;
12798;SDS011;19250;42.646;26.980;2022-09-13T18:39:15;4.93;;;3.33;;
12798;SDS011;19250;42.646;26.980;2022-09-13T18:41:43;7.13;;;2.80;;
12798;SDS011;19250;42.646;26.980;2022-09-13T18:44:13;3.35;;;3.00;;
12798;SDS011;19250;42.646;26.980;2022-09-13T18:46:41;4.57;;;2.42;;
12798;SDS011;19250;42.646;26.980;2022-09-13T18:49:10;4.07;;;2.40;;
12798;SDS011;19250;42.646;26.980;2022-09-13T18:51:38;4.13;;;2.40;;
12798;SDS011;19250;42.646;26.980;2022-09-13T18:54:11;5.03;;;2.50;;
12798;SDS011;19250;42.646;26.980;2022-09-13T18:56:40;3.80;;;2.50;;
12798;SDS011;19250;42.646;26.980;2022-09-13T18:59:07;5.45;;;2.90;;
12798;SDS011;19250;42.646;26.980;2022-09-13T19:01:36;3.40;;;2.53;;
12798;SDS011;19250;42.646;26.980;2022-09-13T19:04:05;7.55;;;2.50;;
12798;SDS011;19250;42.646;26.980;2022-09-13T19:06:34;3.85;;;2.22;;
12798;SDS011;19250;42.646;26.980;2022-09-13T19:09:02;2.92;;;2.20;;
12798;SDS011;19250;42.646;26.980;2022-09-13T19:11:33;4.15;;;2.25;;
12798;SDS011;19250;42.646;26.980;2022-09-13T19:14:01;3.20;;;2.55;;
12798;SDS011;19250;42.646;26.980;2022-09-13T19:16:29;2.50;;;2.30;;
12798;SDS011;19250;42.646;26.980;2022-09-13T19:18:57;4.05;;;2.47;;
12798;SDS011;19250;42.646;26.980;2022-09-13T19:21:25;3.30;;;2.33;;
12798;SDS011;19250;42.646;26.980;2022-09-13T19:23:55;2.45;;;2.25;;
12798;SDS011;19250;42.646;26.980;2022-09-13T19:26:25;3.53;;;2.15;;
12798;SDS011;19250;42.646;26.980;2022-09-13T19:28:56;4.25;;;2.85;;
12798;SDS011;19250;42.646;26.980;2022-09-13T19:31:28;6.10;;;3.60;;
12798;SDS011;19250;42.646;26.980;2022-09-13T19:33:59;5.20;;;3.40;;
12798;SDS011;19250;42.646;26.980;2022-09-13T19:36:28;10.73;;;3.58;;
12798;SDS011;19250;42.646;26.980;2022-09-13T19:38:56;5.43;;;3.00;;
12798;SDS011;19250;42.646;26.980;2022-09-13T19:41:25;7.20;;;4.70;;
12798;SDS011;19250;42.646;26.980;2022-09-13T19:43:56;8.53;;;4.33;;
12798;SDS011;19250;42.646;26.980;2022-09-13T19:46:25;8.90;;;4.43;;
12798;SDS011;19250;42.646;26.980;2022-09-13T19:48:56;6.10;;;3.80;;
12798;SDS011;19250;42.646;26.980;2022-09-13T19:51:25;10.13;;;4.13;;
12798;SDS011;19250;42.646;26.980;2022-09-13T19:53:54;7.63;;;4.20;;
12798;SDS011;19250;42.646;26.980;2022-09-13T19:56:23;5.50;;;3.17;;
12798;SDS011;19250;42.646;26.980;2022-09-13T19:58:52;7.90;;;3.70;;
12798;SDS011;19250;42.646;26.980;2022-09-13T20:01:22;7.53;;;3.40;;
12798;SDS011;19250;42.646;26.980;2022-09-13T20:03:51;4.93;;;3.55;;
12798;SDS011;19250;42.646;26.980;2022-09-13T20:06:20;5.57;;;3.90;;
12798;SDS011;19250;42.646;26.980;2022-09-13T20:08:48;8.00;;;4.30;;
12798;SDS011;19250;42.646;26.980;2022-09-13T20:11:16;6.90;;;5.05;;
12798;SDS011;19250;42.646;26.980;2022-09-13T20:13:45;7.63;;;4.90;;
12798;SDS011;19250;42.646;26.980;2022-09-13T20:16:16;6.90;;;5.57;;
12798;SDS011;19250;42.646;26.980;2022-09-13T20:18:44;5.65;;;4.20;;
12798;SDS011;19250;42.646;26.980;2022-09-13T20:21:12;6.30;;;3.97;;
12798;SDS011;19250;42.646;26.980;2022-09-13T20:23:40;4.28;;;3.35;;
12798;SDS011;19250;42.646;26.980;2022-09-13T20:26:12;7.93;;;3.20;;
12798;SDS011;19250;42.646;26.980;2022-09-13T20:28:40;4.47;;;3.20;;
12798;SDS011;19250;42.646;26.980;2022-09-13T20:31:08;5.15;;;3.70;;
12798;SDS011;19250;42.646;26.980;2022-09-13T20:33:38;6.93;;;4.25;;
12798;SDS011;19250;42.646;26.980;2022-09-13T20:36:07;5.55;;;3.90;;
12798;SDS011;19250;42.646;26.980;2022-09-13T20:38:36;6.05;;;3.22;;
12798;SDS011;19250;42.646;26.980;2022-09-13T20:41:04;4.70;;;3.70;;
12798;SDS011;19250;42.646;26.980;2022-09-13T20:43:35;6.00;;;4.07;;
12798;SDS011;19250;42.646;26.980;2022-09-13T20:46:03;6.50;;;4.45;;
12798;SDS011;19250;42.646;26.980;2022-09-13T20:48:31;3.40;;;3.10;;
12798;SDS011;19250;42.646;26.980;2022-09-13T20:51:01;4.43;;;2.95;;
12798;SDS011;19250;42.646;26.980;2022-09-13T20:53:31;3.90;;;3.15;;
12798;SDS011;19250;42.646;26.980;2022-09-13T20:56:01;8.67;;;4.10;;
12798;SDS011;19250;42.646;26.980;2022-09-13T20:58:28;7.60;;;4.70;;
12798;SDS011;19250;42.646;26.980;2022-09-13T21:00:59;5.45;;;4.38;;
12798;SDS011;19250;42.646;26.980;2022-09-13T21:03:28;5.78;;;4.30;;
12798;SDS011;19250;42.646;26.980;2022-09-13T21:05:56;5.93;;;4.38;;
12798;SDS011;19250;42.646;26.980;2022-09-13T21:08:27;5.30;;;3.65;;
12798;SDS011;19250;42.646;26.980;2022-09-13T21:11:08;5.07;;;3.28;;
12798;SDS011;19250;42.646;26.980;2022-09-13T21:13:39;5.43;;;3.13;;
12798;SDS011;19250;42.646;26.980;2022-09-13T21:16:08;3.60;;;2.87;;
12798;SDS011;19250;42.646;26.980;2022-09-13T21:18:37;2.83;;;2.63;;
12798;SDS011;19250;42.646;26.980;2022-09-13T21:21:05;7.70;;;3.42;;
12798;SDS011;19250;42.646;26.980;2022-09-13T21:23:36;9.43;;;4.07;;
12798;SDS011;19250;42.646;26.980;2022-09-13T21:26:04;9.52;;;3.70;;
12798;SDS011;19250;42.646;26.980;2022-09-13T21:28:36;9.53;;;4.00;;
12798;SDS011;19250;42.646;26.980;2022-09-13T21:31:04;11.80;;;4.00;;
12798;SDS011;19250;42.646;26.980;2022-09-13T21:33:33;14.23;;;4.00;;
12798;SDS011;19250;42.646;26.980;2022-09-13T21:36:02;8.23;;;3.50;;
12798;SDS011;19250;42.646;26.980;2022-09-13T21:38:31;7.10;;;3.40;;
12798;SDS011;19250;42.646;26.980;2022-09-13T21:41:02;8.23;;;3.50;;
12798;SDS011;19250;42.646;26.980;2022-09-13T21:43:31;4.65;;;3.10;;
12798;SDS011;19250;42.646;26.980;2022-09-13T21:46:00;5.97;;;3.30;;
12798;SDS011;19250;42.646;26.980;2022-09-13T21:48:29;6.30;;;3.95;;
12798;SDS011;19250;42.646;26.980;2022-09-13T21:51:04;5.30;;;3.50;;
12798;SDS011;19250;42.646;26.980;2022-09-13T21:53:33;6.30;;;3.35;;
12798;SDS011;19250;42.646;26.980;2022-09-13T21:56:07;5.87;;;3.23;;
12798;SDS011;19250;42.646;26.980;2022-09-13T21:58:36;4.82;;;2.88;;
12798;SDS011;19250;42.646;26.980;2022-09-13T22:01:05;4.28;;;3.20;;
12798;SDS011;19250;42.646;26.980;2022-09-13T22:03:34;6.40;;;3.20;;
12798;SDS011;19250;42.646;26.980;2022-09-13T22:06:03;5.32;;;4.00;;
12798;SDS011;19250;42.646;26.980;2022-09-13T22:08:31;8.45;;;4.07;;
12798;SDS011;19250;42.646;26.980;2022-09-13T22:11:03;8.57;;;3.60;;
12798;SDS011;19250;42.646;26.980;2022-09-13T22:13:34;5.32;;;3.90;;
12798;SDS011;19250;42.646;26.980;2022-09-13T22:16:10;7.43;;;4.10;;
12798;SDS011;19250;42.646;26.980;2022-09-13T22:18:40;6.35;;;3.53;;
12798;SDS011;19250;42.646;26.980;2022-09-13T22:21:08;4.93;;;3.27;;
12798;SDS011;19250;42.646;26.980;2022-09-13T22:23:36;4.22;;;3.10;;
12798;SDS011;19250;42.646;26.980;2022-09-13T22:26:06;3.33;;;2.83;;
12798;SDS011;19250;42.646;26.980;2022-09-13T22:28:35;5.03;;;2.75;;
12798;SDS011;19250;42.646;26.980;2022-09-13T22:31:03;3.10;;;2.80;;
12798;SDS011;19250;42.646;26.980;2022-09-13T22:33:32;3.13;;;2.60;;
12798;SDS011;19250;42.646;26.980;2022-09-13T22:35:59;3.60;;;3.10;;
12798;SDS011;19250;42.646;26.980;2022-09-13T22:38:28;3.42;;;2.88;;
12798;SDS011;19250;42.646;26.980;2022-09-13T22:40:57;3.45;;;2.90;;
12798;SDS011;19250;42.646;26.980;2022-09-13T22:43:28;2.90;;;2.53;;
12798;SDS011;19250;42.646;26.980;2022-09-13T22:45:59;4.57;;;3.53;;
12798;SDS011;19250;42.646;26.980;2022-09-13T22:48:28;5.35;;;3.13;;
12798;SDS011;19250;42.646;26.980;2022-09-13T22:50:55;4.20;;;3.28;;
12798;SDS011;19250;42.646;26.980;2022-09-13T22:53:23;2.88;;;2.65;;
12798;SDS011;19250;42.646;26.980;2022-09-13T22:55:51;3.03;;;2.47;;
12798;SDS011;19250;42.646;26.980;2022-09-13T22:58:19;3.13;;;2.57;;
12798;SDS011;19250;42.646;26.980;2022-09-13T23:00:48;2.88;;;2.67;;
12798;SDS011;19250;42.646;26.980;2022-09-13T23:03:15;2.80;;;2.60;;
12798;SDS011;19250;42.646;26.980;2022-09-13T23:05:48;2.97;;;2.75;;
12798;SDS011;19250;42.646;26.980;2022-09-13T23:08:16;4.50;;;3.30;;
12798;SDS011;19250;42.646;26.980;2022-09-13T23:10:44;4.30;;;3.50;;
12798;SDS011;19250;42.646;26.980;2022-09-13T23:13:11;4.30;;;3.70;;
12798;SDS011;19250;42.646;26.980;2022-09-13T23:15:39;4.47;;;4.07;;
12798;SDS011;19250;42.646;26.980;2022-09-13T23:18:07;5.13;;;4.43;;
12798;SDS011;19250;42.646;26.980;2022-09-13T23:20:35;6.10;;;4.28;;
12798;SDS011;19250;42.646;26.980;2022-09-13T23:23:02;4.45;;;4.03;;
12798;SDS011;19250;42.646;26.980;2022-09-13T23:25:30;7.22;;;4.13;;
12798;SDS011;19250;42.646;26.980;2022-09-13T23:27:59;4.40;;;4.00;;
12798;SDS011;19250;42.646;26.980;2022-09-13T23:30:26;4.85;;;4.32;;
12798;SDS011;19250;42.646;26.980;2022-09-13T23:32:53;4.35;;;3.90;;
12798;SDS011;19250;42.646;26.980;2022-09-13T23:35:22;4.40;;;4.00;;
12798;SDS011;19250;42.646;26.980;2022-09-13T23:37:50;6.40;;;4.00;;
12798;SDS011;19250;42.646;26.980;2022-09-13T23:40:17;6.30;;;4.00;;
12798;SDS011;19250;42.646;26.980;2022-09-13T23:42:47;4.43;;;3.92;;
12798;SDS011;19250;42.646;26.980;2022-09-13T23:45:14;5.60;;;3.90;;
12798;SDS011;19250;42.646;26.980;2022-09-13T23:47:44;5.30;;;4.20;;
12798;SDS011;19250;42.646;26.980;2022-09-13T23:50:11;6.40;;;4.00;;
12798;SDS011;19250;42.646;26.980;2022-09-13T23:52:40;4.93;;;4.20;;
12798;SDS011;19250;42.646;26.980;2022-09-13T23:55:08;5.57;;;4.10;;
12798;SDS011;19250;42.646;26.980;2022-09-13T23:57:38;4.88;;;4.28;;
